Time;durP1;ratioP1;P1;durP2;ratioP2;P2;SDS_P1;SDS_P2;PMS_P1;PMS_P2;Temp;Humidity;BMP_temperature;BMP_pressure;BME280_temperature;BME280_humidity;BME280_pressure;Samples;Min_cycle;Max_cycle;Signal;HPM_P1;HPM_P2
2021/04/01 00:00:52;;;;;;;21.05;11.40;;;9.50;48.80;;;;;;5050524;28;20133;-76
2021/04/01 00:03:18;;;;;;;21.17;10.40;;;9.50;48.90;;;;;;5050742;28;20029;-75
2021/04/01 00:05:44;;;;;;;19.35;10.70;;;9.50;48.70;;;;;;5034305;28;20028;-75
2021/04/01 00:08:10;;;;;;;19.15;10.88;;;9.50;48.30;;;;;;5033912;28;20025;-75
2021/04/01 00:10:43;;;;;;;23.23;11.10;;;9.40;48.20;;;;;;5048813;28;20026;-75
2021/04/01 00:13:10;;;;;;;29.80;13.52;;;9.40;48.20;;;;;;5033326;28;20033;-76
2021/04/01 00:15:39;;;;;;;107.78;40.70;;;9.40;48.40;;;;;;5032181;28;20025;-76
2021/04/01 00:18:07;;;;;;;112.70;41.40;;;9.40;48.50;;;;;;5033520;28;20017;-76
2021/04/01 00:20:33;;;;;;;96.95;38.10;;;9.30;48.50;;;;;;5049129;28;20033;-75
2021/04/01 00:22:58;;;;;;;96.28;39.25;;;9.40;48.50;;;;;;5048311;28;20494;-76
2021/04/01 00:25:24;;;;;;;107.15;42.30;;;9.30;48.50;;;;;;5049023;28;20025;-76
2021/04/01 00:27:50;;;;;;;111.38;43.45;;;9.30;48.50;;;;;;5033308;28;20223;-76
2021/04/01 00:30:16;;;;;;;111.50;42.58;;;9.30;48.60;;;;;;5048516;28;20418;-75
2021/04/01 00:32:42;;;;;;;102.57;41.42;;;9.20;48.60;;;;;;5032274;28;20021;-76
2021/04/01 00:35:08;;;;;;;103.97;41.03;;;9.20;48.70;;;;;;5031612;28;20029;-76
2021/04/01 00:37:35;;;;;;;83.93;34.42;;;9.20;48.80;;;;;;5048882;28;20053;-75
2021/04/01 00:40:00;;;;;;;95.90;37.45;;;9.10;49.50;;;;;;5028839;28;20030;-76
2021/04/01 00:42:26;;;;;;;88.45;35.85;;;9.10;49.00;;;;;;5011594;28;20088;-76
2021/04/01 00:44:57;;;;;;;80.75;28.70;;;9.00;49.00;;;;;;5013329;28;20036;-76
2021/04/01 00:47:23;;;;;;;79.00;32.60;;;9.00;49.10;;;;;;5012844;28;20116;-75
2021/04/01 00:49:49;;;;;;;65.78;26.23;;;9.00;49.10;;;;;;5013262;28;20529;-74
2021/04/01 00:52:14;;;;;;;57.17;23.45;;;9.00;49.10;;;;;;5013336;28;20035;-74
2021/04/01 00:54:40;;;;;;;50.58;21.67;;;8.90;49.10;;;;;;5020662;28;20025;-74
2021/04/01 00:57:06;;;;;;;45.63;20.33;;;8.90;49.20;;;;;;5034610;28;20432;-73
2021/04/01 00:59:32;;;;;;;46.10;17.92;;;8.90;49.30;;;;;;5028106;28;20136;-74
2021/04/01 01:02:04;;;;;;;33.90;16.88;;;8.90;49.50;;;;;;5024805;28;20484;-74
2021/04/01 01:04:31;;;;;;;51.38;22.63;;;8.90;49.50;;;;;;5033012;28;20108;-74
2021/04/01 01:06:58;;;;;;;77.40;31.85;;;8.90;49.40;;;;;;5022699;28;20030;-74
2021/04/01 01:09:23;;;;;;;79.43;31.42;;;8.90;49.30;;;;;;5046894;28;20050;-74
2021/04/01 01:11:49;;;;;;;71.53;29.40;;;8.90;49.30;;;;;;5052591;28;20420;-74
2021/04/01 01:14:15;;;;;;;67.07;26.75;;;8.90;49.30;;;;;;5036935;28;20037;-74
2021/04/01 01:16:42;;;;;;;63.88;26.50;;;8.90;49.20;;;;;;5017528;28;20080;-74
2021/04/01 01:19:11;;;;;;;59.85;27.23;;;8.90;49.20;;;;;;5017495;28;20084;-74
2021/04/01 01:21:36;;;;;;;50.72;22.65;;;8.90;49.20;;;;;;5047192;28;20528;-74
2021/04/01 01:24:02;;;;;;;46.53;21.80;;;8.80;49.20;;;;;;5031261;28;20068;-74
2021/04/01 01:26:28;;;;;;;48.28;22.27;;;8.80;49.30;;;;;;5036553;28;20061;-74
2021/04/01 01:28:54;;;;;;;36.55;17.95;;;8.80;49.50;;;;;;5026726;28;20130;-76
2021/04/01 01:31:22;;;;;;;36.92;16.73;;;8.70;49.60;;;;;;5039871;28;20027;-75
2021/04/01 01:33:48;;;;;;;32.08;15.82;;;8.70;49.70;;;;;;5030554;28;20032;-74
2021/04/01 01:36:15;;;;;;;29.58;14.52;;;8.70;49.80;;;;;;5016255;28;20048;-74
2021/04/01 01:38:41;;;;;;;22.80;11.93;;;8.60;49.80;;;;;;5016789;28;20384;-74
2021/04/01 01:41:07;;;;;;;24.60;12.68;;;8.60;49.90;;;;;;5016590;28;20105;-74
2021/04/01 01:43:34;;;;;;;22.60;12.45;;;8.60;50.00;;;;;;5015429;28;20083;-74
2021/04/01 01:46:00;;;;;;;22.75;12.02;;;8.60;50.20;;;;;;5032097;28;20022;-73
2021/04/01 01:48:26;;;;;;;21.40;11.57;;;8.60;50.40;;;;;;5031706;28;20026;-75
2021/04/01 01:50:52;;;;;;;23.17;11.75;;;8.50;50.40;;;;;;5016508;28;20018;-74
2021/04/01 01:53:18;;;;;;;20.73;11.27;;;8.50;50.80;;;;;;5016506;28;20030;-74
2021/04/01 01:55:44;;;;;;;19.83;10.63;;;8.50;50.90;;;;;;5015029;28;20088;-74
2021/04/01 01:58:11;;;;;;;19.58;10.90;;;8.50;51.30;;;;;;5016539;28;20050;-74
2021/04/01 02:00:44;;;;;;;16.13;10.23;;;8.50;51.30;;;;;;5016714;28;20034;-74
2021/04/01 02:03:11;;;;;;;17.48;10.75;;;8.50;51.40;;;;;;5016329;28;20456;-74
2021/04/01 02:05:38;;;;;;;17.33;9.93;;;8.40;51.50;;;;;;5031477;28;20026;-74
2021/04/01 02:08:06;;;;;;;18.58;9.68;;;8.40;51.60;;;;;;5014856;28;20365;-74
2021/04/01 02:10:35;;;;;;;16.65;10.80;;;8.40;51.50;;;;;;5020868;28;20033;-75
2021/04/01 02:13:03;;;;;;;15.77;10.02;;;8.40;51.30;;;;;;5031343;28;20041;-74
2021/04/01 02:15:37;;;;;;;16.35;9.25;;;8.40;51.20;;;;;;5015068;28;20387;-74
2021/04/01 02:18:06;;;;;;;16.90;9.75;;;8.40;51.20;;;;;;5028897;28;20476;-74
2021/04/01 02:20:40;;;;;;;17.75;10.63;;;8.40;51.20;;;;;;5030592;28;20551;-75
2021/04/01 02:23:06;;;;;;;18.02;11.50;;;8.40;51.20;;;;;;5015889;28;20037;-75
2021/04/01 02:25:32;;;;;;;21.67;10.52;;;8.40;51.50;;;;;;5014890;28;20030;-74
2021/04/01 02:27:59;;;;;;;19.58;11.50;;;8.40;51.70;;;;;;5031122;28;20037;-74
2021/04/01 02:30:24;;;;;;;23.10;10.80;;;8.30;51.80;;;;;;5016061;28;20415;-75
2021/04/01 02:32:50;;;;;;;21.50;11.75;;;8.30;52.00;;;;;;5029446;28;20018;-74
2021/04/01 02:35:16;;;;;;;20.17;12.38;;;8.30;52.10;;;;;;5035310;28;20026;-74
2021/04/01 02:37:42;;;;;;;19.85;11.95;;;8.30;52.10;;;;;;5015842;28;20101;-74
2021/04/01 02:40:08;;;;;;;23.20;12.38;;;8.20;52.10;;;;;;5033904;28;20029;-74
2021/04/01 02:42:34;;;;;;;21.42;12.05;;;8.10;52.10;;;;;;5035658;28;20083;-74
2021/04/01 02:45:00;;;;;;;22.83;13.02;;;8.10;52.30;;;;;;5035182;28;20030;-74
2021/04/01 02:47:25;;;;;;;26.85;13.80;;;8.10;52.40;;;;;;5044275;28;20079;-74
2021/04/01 02:49:51;;;;;;;24.30;13.02;;;8.00;52.50;;;;;;5034298;28;20025;-74
2021/04/01 02:52:16;;;;;;;25.23;12.73;;;8.00;52.50;;;;;;5036082;28;20025;-74
2021/04/01 02:54:42;;;;;;;24.77;12.82;;;8.00;52.60;;;;;;5037648;28;20091;-74
2021/04/01 02:57:16;;;;;;;26.23;13.48;;;8.00;52.70;;;;;;5024752;28;20054;-74
2021/04/01 02:59:43;;;;;;;29.95;15.05;;;8.00;52.70;;;;;;5037035;28;20040;-74
2021/04/01 03:02:10;;;;;;;24.10;13.45;;;7.90;52.70;;;;;;5038230;28;20030;-74
2021/04/01 03:04:36;;;;;;;26.17;14.30;;;7.90;52.90;;;;;;5027001;28;20045;-74
2021/04/01 03:07:03;;;;;;;25.92;13.80;;;7.80;53.00;;;;;;5039225;28;20508;-74
2021/04/01 03:09:28;;;;;;;31.63;14.50;;;7.70;53.00;;;;;;5018180;28;20080;-74
2021/04/01 03:11:54;;;;;;;28.83;15.65;;;7.70;53.20;;;;;;5015803;28;20033;-74
2021/04/01 03:14:20;;;;;;;35.20;16.10;;;7.70;53.50;;;;;;5014184;28;20030;-74
2021/04/01 03:16:46;;;;;;;41.00;19.30;;;7.70;53.60;;;;;;5014920;28;20028;-75
2021/04/01 03:19:11;;;;;;;42.35;19.65;;;7.70;53.90;;;;;;5014323;28;20053;-74
2021/04/01 03:21:37;;;;;;;46.28;20.75;;;7.60;54.00;;;;;;5030252;28;20029;-74
2021/04/01 03:24:03;;;;;;;53.40;24.35;;;7.60;54.20;;;;;;5030256;28;20034;-73
2021/04/01 03:26:30;;;;;;;45.67;19.33;;;7.50;54.30;;;;;;5013504;28;20021;-74
2021/04/01 03:28:56;;;;;;;41.65;20.10;;;7.50;54.50;;;;;;5014772;28;20026;-74
2021/04/01 03:31:21;;;;;;;51.47;22.67;;;7.50;54.50;;;;;;5012495;28;20030;-75
2021/04/01 03:33:47;;;;;;;64.68;27.38;;;7.50;54.70;;;;;;5014224;28;20026;-74
2021/04/01 03:36:13;;;;;;;42.22;19.85;;;7.40;54.70;;;;;;5014384;28;20037;-74
2021/04/01 03:38:39;;;;;;;35.30;17.15;;;7.40;54.80;;;;;;5014919;28;20527;-74
2021/04/01 03:41:05;;;;;;;34.08;15.27;;;7.40;54.90;;;;;;5014256;28;20041;-74
2021/04/01 03:43:31;;;;;;;33.03;16.58;;;7.40;55.10;;;;;;5014285;28;20392;-74
2021/04/01 03:45:56;;;;;;;31.38;15.10;;;7.30;55.30;;;;;;5029766;28;20464;-74
2021/04/01 03:48:22;;;;;;;27.63;14.75;;;7.30;55.30;;;;;;5014070;28;20021;-74
2021/04/01 03:50:48;;;;;;;30.58;16.88;;;7.30;55.60;;;;;;5014244;28;20097;-74
2021/04/01 03:53:13;;;;;;;29.02;15.60;;;7.40;55.90;;;;;;5014270;28;20117;-74
2021/04/01 03:55:43;;;;;;;39.83;17.38;;;7.40;56.00;;;;;;5028156;28;20443;-74
2021/04/01 04:03:58;;;;;;;70.63;29.48;;;7.50;56.10;;;;;;5020664;28;20048;-74
2021/04/01 04:09:05;;;;;;;72.75;29.27;;;7.60;56.40;;;;;;5028283;28;20030;-75
2021/04/01 04:14:22;;;;;;;87.57;34.65;;;7.80;56.50;;;;;;5033406;28;20048;-75
2021/04/01 04:16:45;;;;;;;90.55;35.85;;;7.90;56.30;;;;;;5033569;28;20053;-74
2021/04/01 04:19:11;;;;;;;70.97;30.10;;;8.10;56.00;;;;;;5031933;28;20437;-75
2021/04/01 04:21:39;;;;;;;71.20;30.00;;;8.30;55.80;;;;;;5033677;28;20506;-75
2021/04/01 04:24:06;;;;;;;64.22;27.00;;;8.30;55.40;;;;;;5049696;28;20106;-75
2021/04/01 04:26:32;;;;;;;65.47;30.98;;;8.50;55.30;;;;;;5033607;28;20049;-74
2021/04/01 04:28:58;;;;;;;68.10;30.98;;;8.60;55.20;;;;;;5024752;28;20084;-75
2021/04/01 04:31:23;;;;;;;75.75;32.00;;;8.70;54.90;;;;;;5034369;28;20022;-74
2021/04/01 04:33:49;;;;;;;75.47;32.35;;;8.70;54.70;;;;;;5038197;28;20128;-74
2021/04/01 04:36:15;;;;;;;106.13;38.83;;;8.70;54.60;;;;;;5025482;28;20052;-75
2021/04/01 04:38:40;;;;;;;94.72;39.72;;;8.70;54.60;;;;;;5034934;28;20440;-75
2021/04/01 04:41:06;;;;;;;91.53;38.05;;;8.80;54.60;;;;;;5035151;28;20021;-72
2021/04/01 04:43:33;;;;;;;100.88;38.90;;;8.90;54.50;;;;;;5027985;28;20030;-74
2021/04/01 04:45:59;;;;;;;96.82;41.10;;;9.10;54.60;;;;;;5031066;28;20052;-75
2021/04/01 04:48:26;;;;;;;103.28;42.25;;;9.20;54.40;;;;;;5031394;28;20025;-77
2021/04/01 04:50:52;;;;;;;105.18;42.25;;;9.40;54.20;;;;;;5047275;28;20032;-74
2021/04/01 04:53:18;;;;;;;87.20;37.90;;;9.60;54.30;;;;;;5027441;28;20069;-75
2021/04/01 04:58:26;;;;;;;73.07;31.00;;;10.40;54.00;;;;;;5017413;28;20054;-73
2021/04/01 05:01:05;;;;;;;71.50;31.98;;;10.80;53.80;;;;;;5035722;28;20472;-72
2021/04/01 05:07:01;;;;;;;50.35;22.83;;;11.60;53.50;;;;;;5024497;28;20041;-70
2021/04/01 05:09:03;;;;;;;28.73;16.55;;;12.30;53.20;;;;;;5033649;28;20033;-71
2021/04/01 05:11:30;;;;;;;32.70;16.27;;;13.00;52.30;;;;;;5031845;28;20077;-76
2021/04/01 05:13:55;;;;;;;26.55;16.02;;;13.70;51.50;;;;;;5030684;28;20045;-71
2021/04/01 05:16:21;;;;;;;27.77;15.73;;;14.30;50.40;;;;;;5032281;28;20029;-68
2021/04/01 05:18:48;;;;;;;37.50;17.00;;;14.90;49.20;;;;;;5031266;28;20033;-70
2021/04/01 05:21:15;;;;;;;31.35;16.30;;;15.30;48.30;;;;;;5030867;28;20758;-73
2021/04/01 05:23:46;;;;;;;30.52;16.45;;;15.60;47.70;;;;;;5032093;28;20091;-69
2021/04/01 05:28:42;;;;;;;27.00;17.10;;;16.30;45.30;;;;;;5031266;28;20033;-71
2021/04/01 05:31:11;;;;;;;29.45;17.90;;;16.60;44.20;;;;;;5031176;28;20026;-72
2021/04/01 05:33:40;;;;;;;40.28;22.00;;;16.70;43.70;;;;;;5029057;28;20042;-73
2021/04/01 05:36:10;;;;;;;50.92;25.13;;;16.80;42.80;;;;;;5044690;28;20021;-71
2021/04/01 05:38:38;;;;;;;63.88;31.42;;;16.80;42.60;;;;;;5028813;28;20033;-72
2021/04/01 05:41:06;;;;;;;97.20;43.90;;;16.90;42.40;;;;;;5026333;28;20064;-73
2021/04/01 05:43:34;;;;;;;93.38;42.35;;;16.90;42.10;;;;;;5029391;28;20064;-73
2021/04/01 05:49:05;;;;;;;109.28;47.40;;;16.90;41.70;;;;;;5015002;28;20040;-72
2021/04/01 06:05:46;;;;;;;44.83;22.83;;;18.50;40.40;;;;;;5019433;28;20034;-71
2021/04/01 06:08:16;;;;;;;49.33;26.25;;;18.70;40.50;;;;;;5045117;28;20041;-71
2021/04/01 06:10:43;;;;;;;68.25;34.83;;;19.20;40.20;;;;;;5019130;28;20029;-71
2021/04/01 06:13:16;;;;;;;99.47;48.45;;;19.40;39.40;;;;;;5027825;28;20099;-71
2021/04/01 06:15:47;;;;;;;108.28;53.05;;;19.70;38.70;;;;;;5015400;28;20033;-71
2021/04/01 06:18:15;;;;;;;124.65;54.92;;;19.60;38.20;;;;;;5016494;28;20117;-71
2021/04/01 06:20:43;;;;;;;126.22;54.70;;;19.40;38.60;;;;;;5031795;28;20025;-71
2021/04/01 06:23:16;;;;;;;150.50;68.72;;;19.50;38.70;;;;;;5016114;28;20084;-71
2021/04/01 06:25:50;;;;;;;118.00;55.92;;;19.90;38.80;;;;;;5031912;28;20034;-71
2021/04/01 06:28:20;;;;;;;119.03;52.73;;;20.30;37.90;;;;;;5022279;28;20101;-71
2021/04/01 06:30:58;;;;;;;87.22;40.35;;;20.50;37.90;;;;;;5051138;28;20041;-71
2021/04/01 06:33:27;;;;;;;82.72;40.85;;;20.80;37.40;;;;;;5016306;28;20069;-71
2021/04/01 06:38:29;;;;;;;104.72;48.70;;;20.90;37.30;;;;;;5035210;28;20025;-71
2021/04/01 06:40:58;;;;;;;99.28;44.97;;;21.10;37.30;;;;;;5023206;28;20461;-72
2021/04/01 06:44:04;;;;;;;72.85;36.28;;;21.40;36.80;;;;;;5014281;28;20034;-71
2021/04/01 06:46:42;;;;;;;98.55;47.40;;;21.50;35.90;;;;;;5015516;28;20029;-71
2021/04/01 06:49:32;;;;;;;66.60;33.65;;;21.60;36.20;;;;;;5014122;28;20121;-71
2021/04/01 06:52:04;;;;;;;99.03;46.08;;;21.70;35.80;;;;;;5045249;28;20029;-71
2021/04/01 06:54:42;;;;;;;117.22;51.80;;;21.70;35.50;;;;;;5015728;28;20125;-71
2021/04/01 07:03:13;;;;;;;198.02;84.57;;;21.10;35.50;;;;;;5015601;28;20025;-71
2021/04/01 07:05:59;;;;;;;166.20;67.95;;;20.80;36.10;;;;;;5014928;28;20025;-71
2021/04/01 07:09:13;;;;;;;128.07;55.33;;;20.70;36.50;;;;;;5013821;28;20080;-71
2021/04/01 07:11:38;;;;;;;137.63;58.38;;;20.70;36.70;;;;;;5024336;28;20041;-71
2021/04/01 07:14:27;;;;;;;100.63;45.55;;;20.70;36.90;;;;;;5020608;28;20538;-71
2021/04/01 07:17:08;;;;;;;99.88;45.28;;;21.00;36.60;;;;;;5040111;28;20026;-71
2021/04/01 07:19:52;;;;;;;157.13;64.00;;;21.20;36.50;;;;;;5019566;28;20030;-71
2021/04/01 07:47:54;;;;;;;;;;;22.30;35.70;;;;;;5027069;28;20452;-71
2021/04/01 07:50:23;;;;;;;46.80;24.83;;;22.40;35.60;;;;;;5029736;28;19909;-71
2021/04/01 07:52:55;;;;;;;33.97;20.13;;;22.70;35.30;;;;;;5017999;28;20049;-71
2021/04/01 07:55:26;;;;;;;39.80;22.15;;;22.80;34.70;;;;;;5013953;28;20061;-72
2021/04/01 08:06:08;;;;;;;55.92;27.20;;;22.70;34.40;;;;;;5013995;28;20452;-72
2021/04/01 08:08:43;;;;;;;50.83;27.27;;;22.70;34.70;;;;;;5013781;28;20456;-71
2021/04/01 08:11:11;;;;;;;35.53;19.80;;;22.90;35.00;;;;;;5028942;28;20021;-72
2021/04/01 08:13:43;;;;;;;29.52;18.05;;;23.00;34.60;;;;;;5014005;28;20061;-70
2021/04/01 08:16:13;;;;;;;25.60;17.55;;;23.30;34.70;;;;;;5029149;28;20028;-70
2021/04/01 08:18:41;;;;;;;30.90;18.15;;;23.60;34.40;;;;;;5023017;28;20026;-71
2021/04/01 08:21:09;;;;;;;29.02;16.45;;;24.10;34.80;;;;;;5031228;28;20109;-71
2021/04/01 08:23:36;;;;;;;35.08;19.55;;;24.80;33.60;;;;;;5013995;28;20026;-70
2021/04/01 08:31:36;;;;;;;33.50;19.05;;;24.20;33.20;;;;;;5013487;28;20129;-72
2021/04/01 08:36:51;;;;;;;23.50;15.35;;;24.40;33.10;;;;;;5019196;28;20032;-72
2021/04/01 08:39:19;;;;;;;25.45;14.27;;;24.40;33.40;;;;;;5036130;28;20445;-72
2021/04/01 08:41:59;;;;;;;20.02;13.65;;;24.50;33.00;;;;;;5013846;28;20022;-69
2021/04/01 08:44:43;;;;;;;28.17;16.17;;;24.50;33.00;;;;;;5013494;28;20030;-71
2021/04/01 08:47:39;;;;;;;22.38;14.40;;;24.50;33.60;;;;;;5020946;28;20033;-71
2021/04/01 08:50:27;;;;;;;52.28;26.83;;;24.50;32.70;;;;;;5030513;28;20026;-70
2021/04/01 08:53:26;;;;;;;25.33;15.27;;;24.30;33.30;;;;;;5012252;28;20045;-72
2021/04/01 08:56:30;;;;;;;22.13;13.35;;;24.50;32.70;;;;;;5013405;28;20060;-71
2021/04/01 08:59:23;;;;;;;26.45;15.63;;;24.70;32.70;;;;;;5011988;28;20065;-71
2021/04/01 09:01:57;;;;;;;42.13;22.50;;;24.70;33.00;;;;;;5028858;28;20036;-71
2021/04/01 09:04:25;;;;;;;41.75;22.70;;;25.30;33.30;;;;;;5032598;28;20061;-71
2021/04/01 09:06:56;;;;;;;62.17;29.60;;;26.00;32.70;;;;;;5015143;28;20030;-71
2021/04/01 09:09:33;;;;;;;31.40;16.92;;;26.50;32.20;;;;;;5022972;28;20040;-71
2021/04/01 09:12:12;;;;;;;22.10;13.27;;;26.40;31.00;;;;;;5046223;28;20022;-71
2021/04/01 09:14:41;;;;;;;27.83;16.40;;;26.00;30.90;;;;;;5029509;28;20065;-71
2021/04/01 09:17:11;;;;;;;24.67;13.05;;;25.20;31.40;;;;;;5013331;28;20069;-71
2021/04/01 09:19:40;;;;;;;34.17;18.27;;;24.50;32.20;;;;;;5028301;28;20042;-70
2021/04/01 09:22:23;;;;;;;25.67;14.98;;;24.00;33.40;;;;;;5013678;28;20058;-70
2021/04/01 09:24:59;;;;;;;11.75;7.70;;;24.00;33.80;;;;;;5012005;28;20484;-70
2021/04/01 09:27:25;;;;;;;23.70;10.27;;;24.10;34.60;;;;;;5013263;28;20149;-70
2021/04/01 09:30:06;;;;;;;19.80;11.27;;;24.10;34.10;;;;;;5013255;28;20054;-70
2021/04/01 09:32:32;;;;;;;22.17;11.18;;;24.10;34.10;;;;;;5017338;28;20515;-71
2021/04/01 09:35:01;;;;;;;18.67;12.00;;;24.20;33.60;;;;;;5031900;28;20034;-71
2021/04/01 09:37:27;;;;;;;29.42;17.08;;;24.10;33.60;;;;;;5015617;28;20125;-71
2021/04/01 09:40:07;;;;;;;30.42;16.52;;;24.00;33.40;;;;;;5020585;28;20108;-71
2021/04/01 09:42:46;;;;;;;37.60;14.27;;;23.90;34.00;;;;;;5024985;28;20034;-70
2021/04/01 09:45:29;;;;;;;22.83;10.75;;;24.50;34.10;;;;;;5016671;28;20037;-71
2021/04/01 09:48:00;;;;;;;16.23;9.07;;;24.90;33.50;;;;;;5032175;28;20025;-70
2021/04/01 09:50:33;;;;;;;14.82;9.02;;;24.70;32.80;;;;;;5018015;28;20022;-70
2021/04/01 09:53:07;;;;;;;16.40;10.90;;;24.70;33.40;;;;;;5025573;28;20025;-72
2021/04/01 09:55:53;;;;;;;13.20;9.43;;;24.70;33.00;;;;;;5016612;28;20033;-71
2021/04/01 09:58:23;;;;;;;17.30;10.57;;;24.40;33.20;;;;;;5015113;28;20089;-71
2021/04/01 10:03:29;;;;;;;20.42;11.38;;;24.00;33.80;;;;;;5016203;28;20045;-71
2021/04/01 10:05:55;;;;;;;34.08;14.07;;;23.90;34.30;;;;;;5016147;28;20030;-71
2021/04/01 10:08:27;;;;;;;33.75;15.75;;;24.10;34.90;;;;;;5015105;28;20032;-71
2021/04/01 10:10:55;;;;;;;29.58;12.65;;;24.30;34.40;;;;;;5016266;28;20045;-75
2021/04/01 10:13:27;;;;;;;30.50;13.55;;;24.70;34.30;;;;;;5014894;28;20057;-71
2021/04/01 10:15:55;;;;;;;21.20;8.93;;;25.30;34.10;;;;;;5028838;28;20083;-71
2021/04/01 10:18:25;;;;;;;61.85;28.08;;;25.40;33.10;;;;;;5031728;28;20113;-71
2021/04/01 10:20:59;;;;;;;23.77;14.18;;;25.30;32.90;;;;;;5045305;28;20357;-71
2021/04/01 10:23:25;;;;;;;35.60;14.60;;;25.00;32.80;;;;;;5036526;28;20041;-71
2021/04/01 10:26:03;;;;;;;66.45;24.10;;;25.10;33.50;;;;;;5031311;28;20034;-71
2021/04/01 10:28:41;;;;;;;12.02;7.50;;;25.50;33.80;;;;;;5016235;28;20022;-72
2021/04/01 10:31:13;;;;;;;13.02;8.00;;;25.90;32.80;;;;;;5016018;28;20042;-71
2021/04/01 10:34:10;;;;;;;37.42;15.93;;;25.70;32.00;;;;;;5014999;28;20480;-71
2021/04/01 10:36:40;;;;;;;26.27;11.88;;;25.20;32.60;;;;;;5016134;28;20033;-71
2021/04/01 10:39:10;;;;;;;50.80;23.23;;;25.30;33.70;;;;;;5016770;28;20032;-72
2021/04/01 10:41:55;;;;;;;44.33;15.13;;;25.50;33.10;;;;;;5032817;28;20025;-72
2021/04/01 10:44:23;;;;;;;52.30;31.27;;;25.70;33.00;;;;;;5038949;28;20034;-72
2021/04/01 10:46:52;;;;;;;22.08;11.63;;;26.00;33.30;;;;;;5044877;28;20026;-73
2021/04/01 10:49:23;;;;;;;21.85;13.27;;;26.30;32.70;;;;;;5020868;28;20033;-71
2021/04/01 10:51:50;;;;;;;24.10;12.60;;;26.10;32.10;;;;;;5016190;28;20026;-73
2021/04/01 10:54:16;;;;;;;15.60;9.80;;;25.90;32.20;;;;;;5014830;28;20042;-71
2021/04/01 10:57:02;;;;;;;15.25;9.48;;;25.80;32.30;;;;;;5031060;28;20378;-70
2021/04/01 10:59:46;;;;;;;21.25;10.48;;;25.80;32.40;;;;;;5015329;28;20030;-70
2021/04/01 11:02:21;;;;;;;25.45;10.45;;;25.60;32.40;;;;;;5030711;28;20029;-71
2021/04/01 11:04:56;;;;;;;25.37;10.67;;;25.40;32.90;;;;;;5039220;28;20032;-71
2021/04/01 11:07:24;;;;;;;43.33;15.13;;;25.30;32.60;;;;;;5032723;28;20029;-72
2021/04/01 11:09:51;;;;;;;45.00;20.13;;;25.10;33.00;;;;;;5014176;28;20361;-72
2021/04/01 11:12:19;;;;;;;52.30;18.80;;;25.20;33.70;;;;;;5030586;28;20036;-72
2021/04/01 11:14:51;;;;;;;41.10;17.08;;;25.70;33.80;;;;;;5022022;28;20079;-72
2021/04/01 11:17:20;;;;;;;31.48;12.70;;;26.10;33.50;;;;;;5036375;28;20057;-73
2021/04/01 11:19:47;;;;;;;28.00;16.02;;;26.50;33.60;;;;;;5013726;28;20427;-73
2021/04/01 11:22:13;;;;;;;21.50;10.85;;;26.90;33.00;;;;;;5014961;28;20045;-71
2021/04/01 11:24:39;;;;;;;16.60;10.23;;;27.10;32.60;;;;;;5029920;28;20026;-71
2021/04/01 11:27:18;;;;;;;41.15;12.77;;;27.20;32.40;;;;;;5013532;28;20034;-72
2021/04/01 11:29:55;;;;;;;36.92;15.32;;;27.50;32.10;;;;;;5014435;28;20010;-71
2021/04/01 11:32:23;;;;;;;18.45;12.00;;;27.40;31.50;;;;;;5038647;28;20426;-71
2021/04/01 11:34:52;;;;;;;27.00;15.98;;;27.10;31.10;;;;;;5013077;28;20468;-71
2021/04/01 11:37:23;;;;;;;28.60;10.98;;;26.40;31.40;;;;;;5014382;28;20026;-71
2021/04/01 11:39:55;;;;;;;92.93;29.75;;;25.90;31.90;;;;;;5014660;28;20026;-71
2021/04/01 11:42:21;;;;;;;27.85;14.13;;;25.70;32.30;;;;;;5013789;28;20383;-72
2021/04/01 11:44:47;;;;;;;59.22;27.10;;;25.80;32.20;;;;;;5017088;28;20033;-72
2021/04/01 11:47:23;;;;;;;24.25;12.65;;;25.60;32.00;;;;;;5017653;28;20026;-73
2021/04/01 11:49:50;;;;;;;31.88;16.08;;;25.30;32.10;;;;;;5014563;28;20101;-72
2021/04/01 11:52:21;;;;;;;34.58;16.35;;;25.00;32.80;;;;;;5016304;28;20071;-72
2021/04/01 11:54:51;;;;;;;25.58;10.80;;;24.90;33.40;;;;;;5023633;28;20026;-71
2021/04/01 11:57:18;;;;;;;26.20;13.75;;;25.00;33.50;;;;;;5029048;28;20057;-71
2021/04/01 11:59:58;;;;;;;22.15;11.98;;;25.10;33.10;;;;;;5014477;28;20144;-71
2021/04/01 12:02:26;;;;;;;17.63;10.00;;;24.90;33.00;;;;;;5014312;28;20032;-71
2021/04/01 12:04:56;;;;;;;19.90;10.98;;;24.70;33.20;;;;;;5029728;28;20057;-71
2021/04/01 12:07:22;;;;;;;20.38;10.40;;;24.30;33.60;;;;;;5013077;28;20022;-71
2021/04/01 12:09:52;;;;;;;12.93;7.95;;;24.00;33.90;;;;;;5029718;28;20020;-71
2021/04/01 12:12:32;;;;;;;30.55;14.20;;;23.40;34.40;;;;;;5020805;28;20025;-71
2021/04/01 12:14:59;;;;;;;23.77;11.52;;;22.90;35.10;;;;;;5051903;28;20050;-73
2021/04/01 12:17:36;;;;;;;15.02;9.93;;;22.60;35.80;;;;;;5034958;28;20045;-72
2021/04/01 12:20:05;;;;;;;61.75;23.65;;;22.30;36.10;;;;;;5016567;28;20037;-71
2021/04/01 12:22:34;;;;;;;57.00;23.70;;;22.00;37.40;;;;;;5013122;28;20037;-72
2021/04/01 12:25:00;;;;;;;30.27;14.40;;;21.80;37.30;;;;;;5026281;28;20025;-71
2021/04/01 12:27:30;;;;;;;28.23;14.90;;;21.80;37.50;;;;;;5014057;28;20045;-71
2021/04/01 12:29:57;;;;;;;18.40;9.93;;;21.60;37.60;;;;;;5012456;28;20022;-71
2021/04/01 12:32:27;;;;;;;20.27;11.88;;;21.40;37.90;;;;;;5020560;28;20030;-72
2021/04/01 12:35:13;;;;;;;24.00;11.07;;;21.20;38.30;;;;;;5028499;28;20507;-74
2021/04/01 12:37:39;;;;;;;;;;;21.00;38.80;;;;;;5013546;28;20026;-71
2021/04/01 12:40:19;;;;;;;19.90;10.80;;;20.80;38.50;;;;;;5012318;28;20359;-72
2021/04/01 12:42:46;;;;;;;32.97;16.75;;;20.80;39.20;;;;;;5012483;28;20029;-70
2021/04/01 12:45:20;;;;;;;31.88;14.52;;;20.70;39.40;;;;;;5018690;28;20083;-70
2021/04/01 12:47:46;;;;;;;15.90;8.85;;;20.70;39.90;;;;;;5033430;28;20030;-71
2021/04/01 12:50:12;;;;;;;14.80;9.07;;;20.90;40.50;;;;;;5025456;28;20026;-72
2021/04/01 12:52:46;;;;;;;13.40;8.25;;;20.90;39.50;;;;;;5033600;28;20108;-71
2021/04/01 12:55:15;;;;;;;12.40;7.65;;;21.10;39.70;;;;;;5017813;28;20061;-71
2021/04/01 12:57:43;;;;;;;18.52;10.23;;;21.10;39.60;;;;;;5013425;28;20457;-71
2021/04/01 13:00:10;;;;;;;12.73;7.93;;;21.10;39.60;;;;;;5013423;28;20029;-71
2021/04/01 13:02:36;;;;;;;15.75;7.20;;;21.10;39.60;;;;;;5030028;28;20030;-71
2021/04/01 13:05:05;;;;;;;11.65;7.53;;;21.00;39.60;;;;;;5011719;28;20469;-71
2021/04/01 13:07:44;;;;;;;13.27;8.27;;;21.00;39.50;;;;;;5028326;28;20104;-71
2021/04/01 13:12:48;;;;;;;38.80;18.92;;;20.70;39.40;;;;;;5013128;28;20057;-72
2021/04/01 13:15:14;;;;;;;40.83;17.98;;;20.60;39.80;;;;;;5013171;28;20072;-72
2021/04/01 13:17:40;;;;;;;16.30;9.05;;;20.60;40.10;;;;;;5013043;28;20029;-73
2021/04/01 13:20:06;;;;;;;17.25;8.20;;;20.80;40.30;;;;;;5013400;28;20026;-73
2021/04/01 13:22:45;;;;;;;14.15;8.23;;;20.80;40.40;;;;;;5027950;28;20088;-73
2021/04/01 13:25:14;;;;;;;14.45;7.80;;;20.80;40.30;;;;;;5024120;28;20084;-73
2021/04/01 13:27:45;;;;;;;12.45;7.95;;;20.80;40.30;;;;;;5027096;28;20022;-73
2021/04/01 13:30:12;;;;;;;15.15;7.78;;;20.70;40.30;;;;;;5012037;28;20028;-72
2021/04/01 13:32:56;;;;;;;16.30;8.15;;;20.60;40.30;;;;;;5013427;28;20460;-75
2021/04/01 13:35:39;;;;;;;27.73;9.90;;;20.50;40.30;;;;;;5021484;28;20071;-73
2021/04/01 13:38:27;;;;;;;28.80;11.30;;;20.50;40.70;;;;;;5015446;28;20050;-72
2021/04/01 13:40:54;;;;;;;45.40;22.70;;;20.50;41.10;;;;;;5014492;28;20053;-72
2021/04/01 13:43:24;;;;;;;33.10;15.65;;;20.50;41.10;;;;;;5021336;28;20026;-71
2021/04/01 13:45:50;;;;;;;19.88;11.40;;;20.30;41.30;;;;;;5037709;28;20022;-71
2021/04/01 13:48:28;;;;;;;13.23;8.43;;;20.20;41.50;;;;;;5032816;28;21536;-71
2021/04/01 13:51:11;;;;;;;15.55;8.73;;;20.10;41.50;;;;;;5013153;28;20084;-72
2021/04/01 13:53:49;;;;;;;34.47;14.38;;;20.10;41.70;;;;;;5043588;28;20155;-71
2021/04/01 13:56:23;;;;;;;31.45;16.08;;;20.00;41.70;;;;;;5039612;28;20096;-71
2021/04/01 14:09:34;;;;;;;15.20;8.85;;;19.90;42.20;;;;;;5013206;28;20383;-71
2021/04/01 14:12:03;;;;;;;32.60;11.65;;;19.80;42.30;;;;;;5012877;28;20022;-71
2021/04/01 14:14:29;;;;;;;80.28;32.80;;;19.70;42.00;;;;;;5017016;28;20068;-71
2021/04/01 14:16:56;;;;;;;35.70;17.60;;;19.60;42.00;;;;;;5039077;28;20022;-72
2021/04/01 14:19:24;;;;;;;57.35;23.52;;;19.50;42.00;;;;;;5015143;28;20125;-71
2021/04/01 14:21:54;;;;;;;29.58;13.77;;;19.50;42.10;;;;;;5016212;28;20101;-71
2021/04/01 14:24:25;;;;;;;24.17;13.38;;;19.50;42.40;;;;;;5028860;28;20033;-71
2021/04/01 14:27:05;;;;;;;53.65;23.77;;;19.40;42.70;;;;;;5032213;28;20098;-71
2021/04/01 14:29:33;;;;;;;31.13;15.52;;;19.40;42.70;;;;;;5031102;28;20438;-71